Latest Weather Observations for Coonabarabran Airport

IDN60801

Issued at 2:32 pm EDT Monday 8 February 2016 (issued every 30 minutes, with the page automatically refreshed every 10 minutes)

About weather observations | Map of weather stations | Latest weather observations for NSW | Other Formats
Station Details ID: 064017 Name: COONABARABRAN AIRPORT AWS Lat: -31.33 Lon: 149.27 Height: 645.0 m
Data from the previous 72 hours. | See also: Recent months at Coonabarabran Airport
Date/Time
EDT
Temp
°C
App
Temp
°C
Dew
Point
Rel
Hum
%
Delta-T
°C
Wind Press
QNH
hPa
Press
MSL
hPa
Rain
since 9 am
mm
Dir
 
Spd
km/h
Gust
km/h
Spd
kts
Gust
kts
08/02:30pm 27.4 25.6 12.2 39 9.0 ENE 13 22 7 12 1018.0 1014.2 0.0
08/02:00pm 26.8 24.6 12.1 40 8.7 ENE 15 26 8 14 1018.4 1014.7 0.0
08/01:30pm 26.8 25.4 12.1 40 8.7 SE 11 20 6 11 1018.7 1015.0 0.0
08/01:00pm 25.9 23.9 10.1 37 9.0 E 11 24 6 13 1018.9 1015.2 0.0
08/12:30pm 25.0 22.6 10.1 39 8.5 SE 13 24 7 13 1019.4 1015.6 0.0
08/12:00pm 24.7 22.9 12.0 45 7.4 E 13 24 7 13 1019.7 1015.9 0.0
08/11:30am 23.7 21.5 10.7 44 7.4 E 13 20 7 11 1019.9 1016.2 0.0
08/11:00am 23.0 20.3 10.4 45 7.1 E 15 22 8 12 1020.0 1016.3 0.0
08/10:30am 22.6 19.7 12.3 52 6.0 E 19 26 10 14 1020.0 1016.3 0.0
08/10:00am 21.3 18.1 11.1 52 5.8 E 19 30 10 16 1020.0 1016.3 0.0
08/09:30am 20.2 17.9 11.9 59 4.8 E 15 22 8 12 1019.9 1016.2 0.0
08/09:00am 19.4 16.9 12.4 64 4.0 E 17 24 9 13 1019.8 1016.1 0.0
08/08:30am 18.6 16.3 11.7 64 3.9 ESE 15 24 8 13 1019.7 1015.9 0.0
08/08:00am 17.7 16.8 12.6 72 2.9 SE 9 15 5 8 1019.4 1015.6 0.0
08/07:30am 16.7 15.6 12.0 74 2.7 SSE 9 15 5 8 1019.2 1015.4 0.0
08/07:00am 15.6 14.5 11.8 78 2.1 SSE 9 17 5 9 1018.8 1015.1 0.0
08/06:30am 14.7 13.6 11.8 83 1.6 S 9 13 5 7 1018.5 1014.8 0.0
08/06:00am 15.0 13.9 12.0 82 1.7 SSW 9 11 5 6 1018.2 1014.4 0.0
08/05:30am 15.2 14.1 12.0 81 1.8 SSW 9 13 5 7 1017.9 1014.1 0.0
08/05:00am 16.0 14.9 12.0 77 2.2 S 9 13 5 7 1017.8 1014.0 0.0
08/04:30am 15.9 14.8 11.9 77 2.2 ESE 9 13 5 7 1017.9 1014.1 0.0
08/04:00am 16.0 15.0 12.4 79 2.0 SSE 9 13 5 7 1017.9 1014.1 0.0
08/03:30am 15.9 14.9 12.3 79 2.0 SSE 9 11 5 6 1017.9 1014.1 0.0
08/03:00am 16.1 15.1 12.3 78 2.1 S 9 13 5 7 1018.1 1014.3 0.0
08/02:30am 16.5 15.6 12.5 77 2.3 SSE 9 11 5 6 1018.3 1014.6 0.0
08/02:00am 16.8 15.9 12.5 76 2.4 SSE 9 11 5 6 1018.4 1014.7 0.0
08/01:30am 17.0 15.7 12.5 75 2.6 SSE 11 11 6 6 1018.5 1014.8 0.0
08/01:00am 17.6 16.3 12.5 72 2.9 SSE 11 13 6 7 1018.6 1014.9 0.0
08/12:30am 17.7 16.4 12.4 71 3.0 SSE 11 13 6 7 1018.6 1014.9 0.0
08/12:00am 18.3 17.0 12.5 69 3.3 S 11 15 6 8 1018.6 1014.9 0.0
 
Date/Time
EDT
Temp
°C
App
Temp
°C
Dew
Point
Rel
Hum
%
Delta-T
°C
Wind Press
QNH
hPa
Press
MSL
hPa
Rain
since 9 am
mm
Dir
 
Spd
km/h
Gust
km/h
Spd
kts
Gust
kts
07/11:30pm 18.5 17.1 12.3 67 3.6 SSE 11 15 6 8 1018.6 1014.9 0.0
07/11:00pm 19.2 17.4 12.2 64 4.0 SSE 13 15 7 8 1018.5 1014.8 0.0
07/10:30pm 19.6 17.8 12.1 62 4.3 SSE 13 17 7 9 1018.4 1014.7 0.0
07/10:00pm 20.2 17.9 11.9 59 4.8 SE 15 20 8 11 1018.3 1014.6 0.0
07/09:30pm 20.8 18.2 12.0 57 5.1 SE 17 24 9 13 1018.0 1014.2 0.0
07/09:00pm 21.5 18.3 11.8 54 5.6 SSE 20 24 11 13 1017.6 1013.8 0.0
07/08:30pm 22.0 18.8 12.0 53 5.8 SE 20 30 11 16 1017.1 1013.4 0.0
07/08:00pm 22.9 20.5 12.5 52 6.1 SSE 17 24 9 13 1016.7 1012.9 0.0
07/07:30pm 24.4 21.4 12.7 48 6.9 S 20 26 11 14 1016.2 1012.4 0.0
07/07:00pm 25.2 22.2 12.4 45 7.6 SSE 20 28 11 15 1015.7 1012.0 0.0
07/06:30pm 26.0 23.6 12.5 43 8.0 SSE 17 26 9 14 1015.4 1011.6 0.0
07/06:00pm 26.1 23.6 12.2 42 8.2 SSE 17 26 9 14 1015.4 1011.6 0.0
07/05:30pm 26.4 23.7 12.8 43 8.1 SSE 19 32 10 17 1015.4 1011.6 0.0
07/05:00pm 26.9 25.0 12.9 42 8.4 S 15 26 8 14 1015.3 1011.5 0.0
07/04:30pm 26.8 24.0 11.3 38 9.1 SSE 17 24 9 13 1015.5 1011.8 0.0
07/04:00pm 26.6 24.5 12.3 41 8.5 S 15 24 8 13 1015.5 1011.8 0.0
07/03:30pm 26.9 25.0 11.8 39 8.9 SSE 13 22 7 12 1015.7 1012.0 0.0
07/03:00pm 26.3 24.7 12.7 43 8.1 ESE 13 24 7 13 1016.2 1012.4 0.0
07/02:30pm 26.0 23.9 12.5 43 8.0 SSE 15 28 8 15 1016.4 1012.6 0.0
07/02:00pm 25.6 23.9 12.4 43 7.8 SSW 13 20 7 11 1016.5 1012.7 0.0
07/01:30pm 25.4 24.2 12.9 45 7.5 SSE 11 20 6 11 1016.8 1013.0 0.0
07/01:00pm 24.5 22.6 11.8 45 7.4 S 13 20 7 11 1017.1 1013.4 0.0
07/12:30pm 24.6 24.7 14.4 53 6.2 SSE 7 19 4 10 1017.5 1013.7 0.0
07/12:00pm 23.6 23.0 13.5 53 6.0 SE 9 20 5 11 1017.8 1014.0 0.0
07/11:30am 23.1 22.3 13.0 53 6.0 E 9 17 5 9 1017.9 1014.1 0.0
07/11:00am 22.3 21.8 13.9 59 5.0 ESE 9 17 5 9 1018.3 1014.6 0.0
07/10:30am 21.1 20.3 12.8 59 4.9 E 9 17 5 9 1018.4 1014.7 0.0
07/10:00am 20.7 20.1 13.4 63 4.3 ESE 9 13 5 7 1018.4 1014.7 0.0
07/09:30am 19.4 18.3 13.1 67 3.7 ESE 11 17 6 9 1018.4 1014.7 0.0
07/09:00am 18.4 16.7 12.6 69 3.3 ESE 13 17 7 9 1018.5 1014.8 2.2
07/08:30am 17.7 16.7 12.4 71 3.0 SSE 9 15 5 8 1018.4 1014.7 2.2
07/08:00am 17.2 16.3 12.5 74 2.7 S 9 15 5 8 1018.1 1014.3 2.2
07/07:30am 16.6 16.0 12.4 76 2.4 S 7 15 4 8 1017.7 1013.9 2.2
07/07:00am 15.4 14.5 12.7 84 1.5 SW 9 15 5 8 1017.6 1013.8 2.2
07/06:30am 14.7 13.8 12.6 87 1.2 S 9 15 5 8 1017.1 1013.4 2.2
07/06:00am 14.8 13.9 12.7 87 1.2 SSE 9 11 5 6 1016.8 1013.0 2.2
07/05:30am 14.6 13.7 12.6 88 1.1 SSE 9 13 5 7 1016.5 1012.7 2.2
07/05:00am 14.8 13.6 12.8 88 1.1 S 11 11 6 6 1016.6 1012.8 2.2
07/04:30am 15.2 14.2 12.3 83 1.6 SSE 9 13 5 7 1016.5 1012.7 2.2
07/04:00am 15.8 14.0 12.0 78 2.1 ESE 13 15 7 8 1016.4 1012.6 2.2
07/03:30am 16.0 14.6 12.2 78 2.1 SE 11 17 6 9 1016.5 1012.7 2.2
07/03:00am 16.5 14.4 12.3 76 2.4 ESE 15 20 8 11 1016.5 1012.7 2.2
07/02:30am 16.6 14.6 12.8 78 2.2 ESE 15 17 8 9 1016.7 1012.9 2.2
07/02:00am 16.6 15.0 12.8 78 2.2 ESE 13 17 7 9 1017.1 1013.4 2.2
07/01:30am 16.6 14.7 13.1 80 2.0 E 15 17 8 9 1017.3 1013.6 2.2
07/01:00am 16.8 14.5 13.1 79 2.1 E 17 20 9 11 1017.5 1013.7 2.2
07/12:30am 16.8 15.2 12.9 78 2.2 ENE 13 17 7 9 1017.7 1013.9 2.2
07/12:00am 16.9 15.7 12.8 77 2.3 ENE 11 15 6 8 1017.6 1013.8 2.2
 
Date/Time
EDT
Temp
°C
App
Temp
°C
Dew
Point
Rel
Hum
%
Delta-T
°C
Wind Press
QNH
hPa
Press
MSL
hPa
Rain
since 9 am
mm
Dir
 
Spd
km/h
Gust
km/h
Spd
kts
Gust
kts
06/11:30pm 17.7 16.6 13.2 75 2.6 E 11 22 6 12 1017.5 1013.7 2.2
06/11:00pm 18.5 16.6 13.1 71 3.1 E 15 22 8 12 1017.5 1013.7 2.2
06/10:30pm 18.7 16.4 13.1 70 3.3 E 17 24 9 13 1017.2 1013.5 2.2
06/10:00pm 19.2 15.7 13.4 69 3.4 E 24 35 13 19 1016.6 1012.8 2.2
06/09:30pm 19.7 17.4 14.1 70 3.3 E 19 24 10 13 1016.7 1012.9 2.2
06/09:00pm 20.3 17.8 14.0 67 3.7 E 20 28 11 15 1016.2 1012.4 2.2
06/08:30pm 21.0 19.1 14.2 65 4.1 ESE 17 24 9 13 1016.1 1012.3 2.2
06/08:00pm 21.5 20.1 14.4 64 4.3 SE 15 20 8 11 1015.6 1011.9 2.2
06/07:30pm 22.2 20.5 14.6 62 4.6 SE 17 24 9 13 1015.0 1011.2 2.2
06/07:00pm 22.8 21.1 14.6 60 5.0 SE 17 24 9 13 1014.6 1010.8 2.2
06/06:30pm 23.2 21.0 15.0 60 5.0 SE 20 26 11 14 1014.5 1010.7 2.2
06/06:00pm 23.8 21.8 15.6 60 5.1 SE 20 26 11 14 1014.0 1010.2 2.2
06/05:30pm 23.0 22.2 16.1 65 4.3 SE 15 20 8 11 1014.5 1010.7 2.2
06/05:00pm 22.1 21.6 16.8 72 3.3 ESE 15 20 8 11 1014.4 1010.6 2.2
06/04:30pm 21.2 20.7 16.8 76 2.8 ESE 15 19 8 10 1014.6 1010.8 2.2
06/04:00pm 23.4 22.9 16.0 63 4.6 ESE 13 20 7 11 1014.7 1010.9 0.0
06/03:30pm 24.9 23.8 15.2 54 6.0 SE 15 20 8 11 1014.8 1011.0 0.0
06/03:00pm 25.2 24.3 14.9 52 6.3 ESE 13 19 7 10 1015.0 1011.2 0.0
06/02:30pm 24.4 22.5 15.1 56 5.7 ESE 19 26 10 14 1015.2 1011.4 0.0
06/02:00pm 24.9 24.1 15.2 54 6.0 ESE 13 24 7 13 1015.4 1011.6 0.0
06/01:30pm 25.6 24.1 14.1 49 7.0 E 15 24 8 13 1015.6 1011.9 0.0
06/01:00pm 25.2 23.9 15.8 56 5.9 ESE 17 24 9 13 1016.1 1012.3 0.0
06/12:30pm 24.5 23.1 14.6 54 6.1 E 15 26 8 14 1016.4 1012.6 0.0
06/12:00pm 24.3 22.3 15.0 56 5.7 ESE 19 26 10 14 1016.6 1012.8 0.0
06/11:30am 22.9 20.2 14.5 59 5.1 ESE 22 32 12 17 1016.7 1012.9 0.0
06/11:00am 22.1 20.0 14.7 63 4.5 ESE 19 28 10 15 1017.1 1013.4 0.0
06/10:30am 21.6 18.9 14.5 64 4.3 ESE 22 30 12 16 1017.0 1013.3 0.0
06/10:00am 20.7 19.4 13.6 64 4.2 ESE 13 24 7 13 1017.1 1013.4 0.0
06/09:30am 19.5 18.5 13.4 68 3.6 SE 11 20 6 11 1017.1 1013.4 0.0
06/09:00am 18.1 17.5 13.4 74 2.7 SE 9 15 5 8 1017.1 1013.4 0.0
06/08:30am 17.7 17.6 14.0 79 2.2 SSW 7 13 4 7 1017.1 1013.4 0.0
06/08:00am 16.0 15.4 13.5 85 1.4 SSW 9 13 5 7 1016.7 1012.9 0.0
06/07:30am 15.4 14.8 13.6 89 1.0 SSW 9 15 5 8 1016.2 1012.4 0.0
06/07:00am 14.5 13.8 13.2 92 0.7 SE 9 15 5 8 1015.7 1012.0 0.0
06/06:30am 13.9 12.7 12.8 93 0.6 S 11 13 6 7 1015.3 1011.5 0.0
06/06:00am 13.8 12.9 12.7 93 0.6 SSW 9 13 5 7 1015.0 1011.2 0.0
06/05:30am 13.8 12.9 12.5 92 0.7 S 9 11 5 6 1014.9 1011.1 0.0
06/05:00am 14.2 13.0 12.9 92 0.7 SSE 11 15 6 8 1014.9 1011.1 0.0
06/04:30am 14.2 12.6 12.8 91 0.8 S 13 17 7 9 1014.9 1011.1 0.0
06/04:00am 13.8 12.4 12.2 90 0.9 SSE 11 13 6 7 1014.9 1011.1 0.0
06/03:30am 13.9 12.5 12.3 90 0.9 S 11 13 6 7 1015.1 1011.3 0.0
06/03:00am 14.0 12.5 12.0 88 1.1 SSE 11 11 6 6 1015.3 1011.5 0.0
06/02:30am 15.1 13.4 12.6 85 1.4 SE 13 15 7 8 1015.5 1011.8 0.0
06/02:00am 15.0 13.6 12.3 84 1.5 ESE 11 15 6 8 1015.9 1012.1 0.0
06/01:30am 14.8 13.4 12.1 84 1.5 SE 11 13 6 7 1016.2 1012.4 0.0
06/01:00am 15.0 13.6 12.3 84 1.5 SE 11 13 6 7 1016.3 1012.5 0.0
06/12:30am 15.1 13.7 12.2 83 1.6 SE 11 13 6 7 1016.3 1012.5 0.0
06/12:00am 15.5 13.8 12.6 83 1.6 SE 13 15 7 8 1016.6 1012.8 0.0
 
Date/Time
EDT
Temp
°C
App
Temp
°C
Dew
Point
Rel
Hum
%
Delta-T
°C
Wind Press
QNH
hPa
Press
MSL
hPa
Rain
since 9 am
mm
Dir
 
Spd
km/h
Gust
km/h
Spd
kts
Gust
kts
05/11:30pm 15.7 14.4 12.6 82 1.8 SE 11 15 6 8 1016.6 1012.8 0.0
05/11:00pm 15.7 14.7 12.3 80 1.9 ESE 9 11 5 6 1016.8 1013.0 0.0
05/10:30pm 16.0 14.7 12.4 79 2.0 ESE 11 13 6 7 1016.8 1013.0 0.0
05/10:00pm 16.5 14.4 12.3 76 2.4 SE 15 20 8 11 1016.7 1012.9 0.0
05/09:30pm 17.1 15.1 12.6 75 2.6 SE 15 20 8 11 1016.5 1012.7 0.0
05/09:00pm 17.7 15.3 12.8 73 2.8 SE 17 20 9 11 1016.2 1012.4 0.0
05/08:30pm 18.4 15.1 12.8 70 3.2 SE 22 28 12 15 1015.6 1011.9 0.0
05/08:00pm 19.3 16.6 12.8 66 3.8 SE 19 28 10 15 1015.2 1011.4 0.0
05/07:30pm 20.0 16.2 13.5 66 3.8 SE 26 35 14 19 1014.9 1011.1 0.0
05/07:00pm 21.3 17.1 13.5 61 4.6 SSE 28 37 15 20 1014.5 1010.7 0.0
05/06:30pm 22.6 19.1 13.4 56 5.5 SE 24 35 13 19 1014.0 1010.2 0.0
05/06:00pm 22.7 19.0 14.0 58 5.2 SE 26 35 14 19 1013.7 1009.9 0.0
05/05:30pm 24.2 20.6 14.3 54 6.0 SE 26 35 14 19 1013.5 1009.7 0.0
05/05:00pm 23.9 21.0 14.0 54 6.0 SE 22 33 12 18 1013.6 1009.8 0.0
05/04:30pm 23.8 21.8 15.0 57 5.4 SE 19 26 10 14 1013.9 1010.1 0.0
05/04:00pm 23.6 21.4 14.3 56 5.6 ESE 19 28 10 15 1014.0 1010.2 0.0
05/03:30pm 24.0 21.5 14.1 54 6.0 ESE 20 33 11 18 1014.2 1010.4 0.0
05/03:00pm 24.4 21.7 13.6 51 6.5 E 20 35 11 19 1014.3 1010.5 0.0

Other Formats:

Comma delimited format used in spreadsheet applications
http://www.bom.gov.au/fwo/IDN60801/IDN60801.95728.axf

JavaScript Object Notation format (JSON) in row-major order
http://www.bom.gov.au/fwo/IDN60801/IDN60801.95728.json